Time,TemperatureF,DewpointF,PressureIn,WindDirection,WindDirectionDegrees,WindSpeedMPH,WindSpeedGustMPH,Humidity,HourlyPrecipIn,Conditions,Clouds,dailyrainin,SoftwareType,DateUTC
2013-05-02 00:01:00,71.2,56.2,30.14,ESE,119,2.0,5.0,59,0.00,,---,0.00,VWS V14.01,2013-05-02 04:01:00,
2013-05-02 00:16:00,70.8,56.2,30.14,ESE,119,3.0,5.0,60,0.00,,---,0.00,VWS V14.01,2013-05-02 04:16:00,
2013-05-02 00:31:00,70.4,56.3,30.14,ESE,117,0.0,4.0,61,0.00,,---,0.00,VWS V14.01,2013-05-02 04:31:00,
2013-05-02 00:46:00,70.2,56.1,30.14,ESE,114,2.0,5.0,61,0.00,,---,0.00,VWS V14.01,2013-05-02 04:46:00,
2013-05-02 01:01:00,69.9,55.8,30.14,ESE,115,1.0,5.0,61,0.00,,---,0.00,VWS V14.01,2013-05-02 05:01:00,
2013-05-02 01:16:00,69.1,56.0,30.14,ESE,115,2.0,4.0,63,0.00,,---,0.00,VWS V14.01,2013-05-02 05:16:00,
2013-05-02 01:31:00,68.5,55.9,30.14,ESE,115,2.0,4.0,64,0.00,,---,0.00,VWS V14.01,2013-05-02 05:31:00,
2013-05-02 01:46:00,68.1,55.9,30.14,ESE,115,2.0,7.0,65,0.00,,---,0.00,VWS V14.01,2013-05-02 05:46:00,
2013-05-02 02:01:00,68.0,55.8,30.13,ESE,103,3.0,5.0,65,0.00,,---,0.00,VWS V14.01,2013-05-02 06:01:00,
2013-05-02 02:16:00,67.3,55.6,30.13,East,99,3.0,7.0,66,0.00,,---,0.00,VWS V14.01,2013-05-02 06:16:00,
2013-05-02 02:31:00,67.2,55.9,30.12,ESE,106,3.0,8.0,67,0.00,,---,0.00,VWS V14.01,2013-05-02 06:31:00,
2013-05-02 02:46:00,66.8,55.5,30.13,ESE,105,1.0,7.0,67,0.00,,---,0.00,VWS V14.01,2013-05-02 06:46:00,
2013-05-02 03:01:00,66.7,55.4,30.12,ESE,111,2.0,7.0,67,0.00,,---,0.00,VWS V14.01,2013-05-02 07:01:00,
2013-05-02 03:16:00,66.9,55.6,30.12,ESE,117,1.0,7.0,67,0.00,,---,0.00,VWS V14.01,2013-05-02 07:16:00,
2013-05-02 03:31:00,66.9,55.2,30.13,ESE,117,1.0,5.0,66,0.00,,---,0.00,VWS V14.01,2013-05-02 07:31:00,
2013-05-02 03:46:00,66.9,55.2,30.12,SE,139,5.0,7.0,66,0.00,,---,0.00,VWS V14.01,2013-05-02 07:46:00,
2013-05-02 04:01:00,67.0,55.3,30.13,SE,130,3.0,6.0,66,0.00,,---,0.00,VWS V14.01,2013-05-02 08:01:00,
2013-05-02 04:16:00,66.7,55.0,30.12,SE,137,8.0,9.0,66,0.00,,---,0.00,VWS V14.01,2013-05-02 08:16:00,
2013-05-02 04:31:00,65.8,55.0,30.12,ESE,111,3.0,9.0,68,0.00,,---,0.00,VWS V14.01,2013-05-02 08:31:00,
2013-05-02 04:46:00,65.6,54.8,30.12,ESE,113,3.0,7.0,68,0.00,,---,0.00,VWS V14.01,2013-05-02 08:46:00,
2013-05-02 05:01:00,65.0,55.0,30.12,East,101,2.0,6.0,70,0.00,,---,0.00,VWS V14.01,2013-05-02 09:01:00,
2013-05-02 05:16:00,64.2,54.6,30.12,East,101,1.0,5.0,71,0.00,,---,0.00,VWS V14.01,2013-05-02 09:16:00,
2013-05-02 05:31:00,63.5,54.7,30.12,East,101,2.0,6.0,73,0.00,,---,0.00,VWS V14.01,2013-05-02 09:31:00,
2013-05-02 05:46:00,62.8,54.8,30.12,East,101,1.0,6.0,75,0.00,,---,0.00,VWS V14.01,2013-05-02 09:46:00,
2013-05-02 06:01:00,62.3,54.7,30.12,East,101,0.0,5.0,76,0.00,,---,0.00,VWS V14.01,2013-05-02 10:01:00,
2013-05-02 06:16:00,61.8,54.5,30.12,East,101,2.0,2.0,77,0.00,,---,0.00,VWS V14.01,2013-05-02 10:16:00,
2013-05-02 06:31:00,61.5,54.6,30.12,East,101,0.0,3.0,78,0.00,,---,0.00,VWS V14.01,2013-05-02 10:31:00,
2013-05-02 06:46:00,60.4,53.9,30.13,East,101,1.0,2.0,79,0.00,,---,0.00,VWS V14.01,2013-05-02 10:46:00,
2013-05-02 07:01:00,59.7,54.2,30.13,NNW,333,0.0,2.0,82,0.00,,---,0.00,VWS V14.01,2013-05-02 11:01:00,
2013-05-02 07:16:00,59.4,54.2,30.14,NNW,333,1.0,2.0,83,0.00,,---,0.00,VWS V14.01,2013-05-02 11:16:00,
2013-05-02 07:31:00,59.8,54.6,30.14,SW,225,0.0,1.0,83,0.00,,---,0.00,VWS V14.01,2013-05-02 11:31:00,
2013-05-02 07:46:00,60.3,54.8,30.14,SW,225,0.0,1.0,82,0.00,,---,0.00,VWS V14.01,2013-05-02 11:46:00,
2013-05-02 08:01:00,60.7,55.5,30.15,SW,225,0.0,1.0,83,0.00,,---,0.00,VWS V14.01,2013-05-02 12:01:00,
2013-05-02 08:16:00,62.7,56.1,30.15,SW,225,0.0,2.0,79,0.00,,---,0.00,VWS V14.01,2013-05-02 12:16:00,
2013-05-02 08:31:00,64.8,57.1,30.15,SW,225,0.0,1.0,76,0.00,,---,0.00,VWS V14.01,2013-05-02 12:31:00,
2013-05-02 08:46:00,66.4,56.7,30.15,SW,217,0.0,4.0,71,0.00,,---,0.00,VWS V14.01,2013-05-02 12:46:00,
2013-05-02 09:01:00,63.0,55.3,30.16,WSW,242,0.0,5.0,76,0.00,,---,0.00,VWS V14.01,2013-05-02 13:01:00,
2013-05-02 09:16:00,63.0,55.3,30.16,WSW,242,3.0,5.0,76,0.00,,---,0.00,VWS V14.01,2013-05-02 13:16:00,
2013-05-02 09:31:00,63.7,55.6,30.16,West,259,4.0,6.0,75,0.00,,---,0.00,VWS V14.01,2013-05-02 13:31:00,
2013-05-02 09:46:00,63.9,54.7,30.16,West,259,4.0,6.0,72,0.00,,---,0.00,VWS V14.01,2013-05-02 13:46:00,
2013-05-02 10:01:00,64.4,55.6,30.16,West,259,4.0,5.0,73,0.00,,---,0.00,VWS V14.01,2013-05-02 14:01:00,
2013-05-02 10:16:00,65.4,56.2,30.16,West,261,4.0,6.0,72,0.00,,---,0.00,VWS V14.01,2013-05-02 14:16:00,
2013-05-02 10:31:00,66.5,56.4,30.16,West,271,4.0,8.0,70,0.00,,---,0.00,VWS V14.01,2013-05-02 14:31:00,
2013-05-02 10:46:00,67.1,55.8,30.16,West,267,3.0,7.0,67,0.00,,---,0.00,VWS V14.01,2013-05-02 14:46:00,
2013-05-02 11:01:00,67.8,56.5,30.16,West,265,6.0,7.0,67,0.00,,---,0.00,VWS V14.01,2013-05-02 15:01:00,
2013-05-02 11:16:00,68.6,57.6,30.16,West,265,3.0,7.0,68,0.00,,---,0.00,VWS V14.01,2013-05-02 15:16:00,
2013-05-02 11:31:00,69.7,56.6,30.15,West,273,2.0,7.0,63,0.00,,---,0.00,VWS V14.01,2013-05-02 15:31:00,
2013-05-02 11:46:00,70.6,56.5,30.15,WSW,254,5.0,7.0,61,0.00,,---,0.00,VWS V14.01,2013-05-02 15:46:00,
2013-05-02 12:01:00,71.1,56.5,30.15,WNW,287,3.0,8.0,60,0.00,,---,0.00,VWS V14.01,2013-05-02 16:01:00,
2013-05-02 12:16:00,70.6,56.5,30.14,WSW,253,5.0,9.0,61,0.00,,---,0.00,VWS V14.01,2013-05-02 16:16:00,
2013-05-02 12:31:00,71.6,57.5,30.14,WNW,298,4.0,9.0,61,0.00,,---,0.00,VWS V14.01,2013-05-02 16:31:00,
2013-05-02 12:46:00,72.5,57.8,30.14,WNW,300,0.0,6.0,60,0.00,,---,0.00,VWS V14.01,2013-05-02 16:46:00,
2013-05-02 13:01:00,72.3,56.7,30.13,NW,325,3.0,8.0,58,0.00,,---,0.00,VWS V14.01,2013-05-02 17:01:00,
2013-05-02 13:16:00,71.6,56.5,30.13,WNW,284,7.0,8.0,59,0.00,,---,0.00,VWS V14.01,2013-05-02 17:16:00,
2013-05-02 13:31:00,71.2,55.7,30.13,WNW,290,3.0,8.0,58,0.00,,---,0.00,VWS V14.01,2013-05-02 17:31:00,
2013-05-02 13:46:00,71.1,55.6,30.12,NW,315,3.0,8.0,58,0.00,,---,0.00,VWS V14.01,2013-05-02 17:46:00,
2013-05-02 14:01:00,70.7,55.2,30.12,WNW,296,3.0,7.0,58,0.00,,---,0.00,VWS V14.01,2013-05-02 18:01:00,
2013-05-02 14:16:00,70.0,54.1,30.12,WNW,290,5.0,8.0,57,0.00,,---,0.00,VWS V14.01,2013-05-02 18:16:00,
2013-05-02 14:31:00,69.6,54.2,30.11,WNW,302,5.0,8.0,58,0.00,,---,0.00,VWS V14.01,2013-05-02 18:31:00,
2013-05-02 14:46:00,67.3,52.0,30.12,West,273,7.0,13.0,58,0.00,,---,0.00,VWS V14.01,2013-05-02 18:46:00,
2013-05-02 15:01:00,63.7,50.5,30.12,West,269,11.0,15.0,62,0.00,,---,0.00,VWS V14.01,2013-05-02 19:01:00,
2013-05-02 15:16:00,60.8,49.0,30.12,West,278,5.0,12.0,65,0.00,,---,0.00,VWS V14.01,2013-05-02 19:16:00,
2013-05-02 15:31:00,58.3,47.4,30.12,West,279,6.0,12.0,67,0.00,,---,0.00,VWS V14.01,2013-05-02 19:31:00,
2013-05-02 15:46:00,58.2,47.7,30.12,NNW,331,7.0,13.0,68,0.00,,---,0.00,VWS V14.01,2013-05-02 19:46:00,
2013-05-02 16:01:00,56.9,47.2,30.12,NNW,338,5.0,11.0,70,0.00,,---,0.00,VWS V14.01,2013-05-02 20:01:00,
2013-05-02 16:16:00,57.5,47.4,30.11,WNW,296,6.0,11.0,69,0.00,,---,0.00,VWS V14.01,2013-05-02 20:16:00,
2013-05-02 16:31:00,58.0,47.5,30.11,North,9,6.0,9.0,68,0.00,,---,0.00,VWS V14.01,2013-05-02 20:31:00,
2013-05-02 16:46:00,56.7,46.7,30.10,NW,306,5.0,12.0,69,0.00,,---,0.00,VWS V14.01,2013-05-02 20:46:00,
2013-05-02 17:01:00,57.0,47.7,30.10,WNW,291,5.0,10.0,71,0.00,,---,0.00,VWS V14.01,2013-05-02 21:01:00,
2013-05-02 17:16:00,56.2,46.9,30.10,WNW,290,3.0,10.0,71,0.00,,---,0.00,VWS V14.01,2013-05-02 21:16:00,
2013-05-02 17:31:00,55.7,46.5,30.10,WNW,289,7.0,11.0,71,0.00,,---,0.00,VWS V14.01,2013-05-02 21:31:00,
2013-05-02 17:46:00,56.1,46.8,30.09,WNW,296,6.0,11.0,71,0.00,,---,0.00,VWS V14.01,2013-05-02 21:46:00,
2013-05-02 18:01:00,56.6,47.3,30.10,West,269,7.0,11.0,71,0.00,,---,0.00,VWS V14.01,2013-05-02 22:01:00,
2013-05-02 18:16:00,56.3,47.4,30.09,NW,309,4.0,10.0,72,0.00,,---,0.00,VWS V14.01,2013-05-02 22:16:00,
2013-05-02 18:31:00,57.3,48.0,30.09,WNW,302,4.0,9.0,71,0.00,,---,0.00,VWS V14.01,2013-05-02 22:31:00,
2013-05-02 18:46:00,57.2,48.3,30.09,WNW,299,4.0,8.0,72,0.00,,---,0.00,VWS V14.01,2013-05-02 22:46:00,
2013-05-02 19:01:00,57.0,48.4,30.09,WNW,286,5.0,7.0,73,0.00,,---,0.00,VWS V14.01,2013-05-02 23:01:00,
2013-05-02 19:16:00,57.7,48.8,30.09,NW,309,3.0,6.0,72,0.00,,---,0.00,VWS V14.01,2013-05-02 23:16:00,
2013-05-02 19:31:00,57.8,48.5,30.08,NNW,340,4.0,5.0,71,0.00,,---,0.00,VWS V14.01,2013-05-02 23:31:00,
2013-05-02 19:46:00,57.4,48.8,30.09,North,350,4.0,5.0,73,0.00,,---,0.00,VWS V14.01,2013-05-02 23:46:00,
2013-05-02 20:01:00,56.8,48.2,30.09,North,360,1.0,5.0,73,0.00,,---,0.00,VWS V14.01,2013-05-03 00:01:00,
2013-05-02 20:16:00,56.1,48.3,30.09,North,360,0.0,3.0,75,0.00,,---,0.00,VWS V14.01,2013-05-03 00:16:00,
2013-05-02 20:31:00,55.5,47.7,30.09,North,360,2.0,4.0,75,0.00,,---,0.00,VWS V14.01,2013-05-03 00:31:00,
2013-05-02 20:46:00,54.4,47.3,30.10,North,360,1.0,3.0,77,0.00,,---,0.00,VWS V14.01,2013-05-03 00:46:00,
2013-05-02 21:01:00,52.6,46.3,30.10,WNW,292,5.0,8.0,79,0.00,,---,0.00,VWS V14.01,2013-05-03 01:01:00,
2013-05-02 21:16:00,50.8,44.9,30.10,WNW,294,3.0,7.0,80,0.00,,---,0.00,VWS V14.01,2013-05-03 01:16:00,
2013-05-02 21:31:00,49.6,44.3,30.12,WNW,296,3.0,6.0,82,0.00,,---,0.00,VWS V14.01,2013-05-03 01:31:00,
2013-05-02 21:46:00,49.1,43.8,30.11,WNW,292,4.0,7.0,82,0.00,,---,0.00,VWS V14.01,2013-05-03 01:46:00,
2013-05-02 22:01:00,47.5,42.9,30.12,WNW,288,5.0,9.0,84,0.00,,---,0.00,VWS V14.01,2013-05-03 02:01:00,
2013-05-02 22:16:00,45.8,41.5,30.12,WNW,283,3.0,9.0,85,0.00,,---,0.00,VWS V14.01,2013-05-03 02:16:00,
2013-05-02 22:31:00,43.9,40.3,30.12,WNW,303,3.0,9.0,87,0.00,,---,0.00,VWS V14.01,2013-05-03 02:31:00,
2013-05-02 22:46:00,42.8,39.2,30.13,WNW,303,3.0,10.0,87,0.00,,---,0.00,VWS V14.01,2013-05-03 02:46:00,
2013-05-02 23:01:00,41.9,38.6,30.13,WNW,292,4.0,11.0,88,0.00,,---,0.00,VWS V14.01,2013-05-03 03:01:00,
2013-05-02 23:16:00,41.7,38.7,30.12,NW,308,2.0,9.0,89,0.00,,---,0.00,VWS V14.01,2013-05-03 03:16:00,
2013-05-02 23:31:00,41.7,39.0,30.12,NW,313,4.0,6.0,90,0.00,,---,0.00,VWS V14.01,2013-05-03 03:31:00,
2013-05-02 23:46:00,41.6,38.9,30.12,NW,312,2.0,6.0,90,0.00,,---,0.00,VWS V14.01,2013-05-03 03:46:00,